Cincinnati, OH

11:58 PM EST on December 20, 2014 (GMT -0500)
Newport Aquarium | Change Station
CLOSE
Current Station
Personal Weather Station
Location: Newport, KY
Elevation: 499 ft
Nearby Weather Stations

Elev 499 ft 39.09 °N, 84.50 °W | Updated 3 minutes ago

Overcast
Overcast
32.7 °F
Feels Like 33 °F
N
0.0
Wind Variable Wind from South
Gusts 2.0 mph

Today
High -- | Low -- °F
--% Chance of Precip.
Yesterday
High -- | Low -- °F
Precip. -- in
7:53 AM 5:18 PM
Waning Crescent, 1% visible
Pressure 30.34 in
Visibility 6.0 miles
Clouds Overcast 2500 ft
Windchill 33 °F
Dew Point 26 °F
Humidity 75%
Rainfall 0.00 in
Snow Depth Not available.
UV 0.0 out of 12
Pollen .10 out of 12
Air Quality Not available.
Flu Activity Not available.
METAR KLUK 210453Z AUTO 00000KT 6SM BR OVC025 M01/M03 A3033 RMK AO2 SLP273 T10061028 400061011

More Conditions Fewer Conditions

Pressure 30.34 in
Visibility 6.0 miles
Clouds Overcast 2500 ft
Windchill 33 °F
Dew Point 26 °F
Humidity 75%
Rainfall 0.00 in
Snow Depth Not available.
UV 0.0 out of 12
Pollen .10 out of 12
Air Quality Not available.
Flu Activity Not available.
METAR KLUK 210453Z AUTO 00000KT 6SM BR OVC025 M01/M03 A3033 RMK AO2 SLP273 T10061028 400061011

More Conditions Fewer Conditions

10-Day Weather Forecast

Almanac

Astronomy

Dec. 20, 2014 Rise Set
Actual Time
Civil Twilight
Nautical Twilight
Astronomical Twilight
Moon
Length of Visible Light
Length of Day
Tomorrow will be .
, % of the Moon is Illuminated

Today's Extremes

State Highs State Lows

Community

WunderPhotos

Upload Photos

1,779,358 photos uploaded!

WunderBlogs® & News

Nearby

Air Quality

  Air Quality AQ Index Pollutant
Not available.

Snow Depth

Station Depth Elevation

Earthquake Activity

City Distance Mag. Time & Date
Minimum magnitude displayed is 2.5.

Coastal Water Temperatures

Place Temperature

Nearby Weather Stations